sensor_id;sensor_type;location;lat;lon;timestamp;P1;durP1;ratioP1;P2;durP2;ratioP2
78013;SDS011;67222;50.182;8.734;2023-05-10T04:32:55;1.83;;;0.80;;
78013;SDS011;67222;50.182;8.734;2023-05-10T04:35:21;3.67;;;1.00;;
78013;SDS011;67222;50.182;8.734;2023-05-10T04:37:46;1.83;;;1.07;;
78013;SDS011;67222;50.182;8.734;2023-05-10T04:40:11;2.57;;;1.00;;
78013;SDS011;67222;50.182;8.734;2023-05-10T04:42:39;3.00;;;1.00;;
78013;SDS011;67222;50.182;8.734;2023-05-10T04:45:06;3.38;;;1.17;;
78013;SDS011;67222;50.182;8.734;2023-05-10T04:47:32;1.80;;;0.88;;
78013;SDS011;67222;50.182;8.734;2023-05-10T04:49:57;2.15;;;1.00;;
78013;SDS011;67222;50.182;8.734;2023-05-10T04:52:23;2.40;;;1.00;;
78013;SDS011;67222;50.182;8.734;2023-05-10T04:54:48;4.57;;;1.13;;
78013;SDS011;67222;50.182;8.734;2023-05-10T04:57:14;2.38;;;1.00;;
78013;SDS011;67222;50.182;8.734;2023-05-10T04:59:39;3.27;;;1.13;;
78013;SDS011;67222;50.182;8.734;2023-05-10T05:02:04;2.13;;;1.10;;
78013;SDS011;67222;50.182;8.734;2023-05-10T05:04:29;2.87;;;1.10;;
78013;SDS011;67222;50.182;8.734;2023-05-10T05:06:56;2.78;;;1.20;;
78013;SDS011;67222;50.182;8.734;2023-05-10T05:09:21;5.07;;;1.40;;
78013;SDS011;67222;50.182;8.734;2023-05-10T05:11:46;3.30;;;1.20;;
78013;SDS011;67222;50.182;8.734;2023-05-10T05:14:11;3.50;;;1.23;;
78013;SDS011;67222;50.182;8.734;2023-05-10T05:16:37;2.57;;;1.03;;
78013;SDS011;67222;50.182;8.734;2023-05-10T05:19:02;2.70;;;1.23;;
78013;SDS011;67222;50.182;8.734;2023-05-10T05:21:27;2.67;;;1.35;;
78013;SDS011;67222;50.182;8.734;2023-05-10T05:23:53;2.50;;;1.30;;
78013;SDS011;67222;50.182;8.734;2023-05-10T05:26:19;2.90;;;1.30;;
78013;SDS011;67222;50.182;8.734;2023-05-10T05:28:44;3.13;;;1.40;;
78013;SDS011;67222;50.182;8.734;2023-05-10T05:31:09;3.20;;;1.30;;
78013;SDS011;67222;50.182;8.734;2023-05-10T05:33:35;3.75;;;1.33;;
78013;SDS011;67222;50.182;8.734;2023-05-10T05:36:01;4.15;;;1.50;;
78013;SDS011;67222;50.182;8.734;2023-05-10T05:38:27;2.75;;;1.30;;
78013;SDS011;67222;50.182;8.734;2023-05-10T05:40:52;2.65;;;1.70;;
78013;SDS011;67222;50.182;8.734;2023-05-10T05:43:18;5.20;;;1.60;;
78013;SDS011;67222;50.182;8.734;2023-05-10T05:45:43;2.60;;;1.40;;
78013;SDS011;67222;50.182;8.734;2023-05-10T05:48:08;2.97;;;1.80;;
78013;SDS011;67222;50.182;8.734;2023-05-10T05:50:34;4.27;;;1.87;;
78013;SDS011;67222;50.182;8.734;2023-05-10T05:52:59;2.27;;;1.33;;
78013;SDS011;67222;50.182;8.734;2023-05-10T05:55:24;2.90;;;1.57;;
78013;SDS011;67222;50.182;8.734;2023-05-10T05:57:51;2.97;;;1.70;;
78013;SDS011;67222;50.182;8.734;2023-05-10T06:00:16;2.70;;;1.65;;
78013;SDS011;67222;50.182;8.734;2023-05-10T06:02:42;4.47;;;2.58;;
78013;SDS011;67222;50.182;8.734;2023-05-10T06:05:07;3.17;;;2.28;;
78013;SDS011;67222;50.182;8.734;2023-05-10T06:07:33;2.95;;;1.70;;
78013;SDS011;67222;50.182;8.734;2023-05-10T06:09:58;4.20;;;1.80;;
78013;SDS011;67222;50.182;8.734;2023-05-10T06:12:24;3.30;;;1.80;;
78013;SDS011;67222;50.182;8.734;2023-05-10T06:14:49;3.37;;;1.90;;
78013;SDS011;67222;50.182;8.734;2023-05-10T06:17:14;3.80;;;2.13;;
78013;SDS011;67222;50.182;8.734;2023-05-10T06:19:40;3.58;;;2.15;;
78013;SDS011;67222;50.182;8.734;2023-05-10T06:22:05;4.05;;;2.08;;
78013;SDS011;67222;50.182;8.734;2023-05-10T06:24:30;4.03;;;2.13;;
78013;SDS011;67222;50.182;8.734;2023-05-10T06:26:56;4.75;;;2.10;;
78013;SDS011;67222;50.182;8.734;2023-05-10T06:29:21;3.55;;;2.28;;
78013;SDS011;67222;50.182;8.734;2023-05-10T06:31:46;5.13;;;2.20;;
78013;SDS011;67222;50.182;8.734;2023-05-10T06:34:12;4.63;;;2.55;;
78013;SDS011;67222;50.182;8.734;2023-05-10T06:36:38;4.47;;;2.40;;
78013;SDS011;67222;50.182;8.734;2023-05-10T06:39:03;4.60;;;2.20;;
78013;SDS011;67222;50.182;8.734;2023-05-10T06:41:29;3.93;;;2.10;;
78013;SDS011;67222;50.182;8.734;2023-05-10T06:43:54;4.63;;;2.30;;
78013;SDS011;67222;50.182;8.734;2023-05-10T06:46:19;4.20;;;2.53;;
78013;SDS011;67222;50.182;8.734;2023-05-10T06:48:45;4.97;;;2.38;;
78013;SDS011;67222;50.182;8.734;2023-05-10T06:51:10;4.97;;;2.33;;
78013;SDS011;67222;50.182;8.734;2023-05-10T06:53:35;4.78;;;2.28;;
78013;SDS011;67222;50.182;8.734;2023-05-10T06:56:01;3.67;;;2.30;;
78013;SDS011;67222;50.182;8.734;2023-05-10T06:58:28;5.35;;;2.28;;
78013;SDS011;67222;50.182;8.734;2023-05-10T07:00:53;5.07;;;2.10;;
78013;SDS011;67222;50.182;8.734;2023-05-10T07:03:18;4.07;;;2.07;;
78013;SDS011;67222;50.182;8.734;2023-05-10T07:05:43;3.37;;;2.17;;
78013;SDS011;67222;50.182;8.734;2023-05-10T07:08:09;4.03;;;2.30;;
78013;SDS011;67222;50.182;8.734;2023-05-10T07:10:34;4.33;;;2.07;;
78013;SDS011;67222;50.182;8.734;2023-05-10T07:12:59;3.50;;;2.27;;
78013;SDS011;67222;50.182;8.734;2023-05-10T07:15:26;3.58;;;2.13;;
78013;SDS011;67222;50.182;8.734;2023-05-10T07:17:51;6.80;;;2.50;;
78013;SDS011;67222;50.182;8.734;2023-05-10T07:20:17;3.42;;;2.38;;
78013;SDS011;67222;50.182;8.734;2023-05-10T07:22:42;3.63;;;2.28;;
78013;SDS011;67222;50.182;8.734;2023-05-10T07:25:08;4.50;;;2.13;;
78013;SDS011;67222;50.182;8.734;2023-05-10T07:27:33;4.78;;;2.42;;
78013;SDS011;67222;50.182;8.734;2023-05-10T07:29:59;5.45;;;2.30;;
78013;SDS011;67222;50.182;8.734;2023-05-10T07:32:25;5.45;;;2.03;;
78013;SDS011;67222;50.182;8.734;2023-05-10T07:34:50;4.93;;;1.95;;
78013;SDS011;67222;50.182;8.734;2023-05-10T07:37:16;4.60;;;1.90;;
78013;SDS011;67222;50.182;8.734;2023-05-10T07:39:41;3.47;;;2.00;;
78013;SDS011;67222;50.182;8.734;2023-05-10T07:42:06;3.90;;;1.80;;
78013;SDS011;67222;50.182;8.734;2023-05-10T07:44:32;4.53;;;2.30;;
78013;SDS011;67222;50.182;8.734;2023-05-10T07:46:57;4.70;;;2.17;;
78013;SDS011;67222;50.182;8.734;2023-05-10T07:49:22;4.80;;;2.60;;
78013;SDS011;67222;50.182;8.734;2023-05-10T07:54:16;4.68;;;2.00;;
78013;SDS011;67222;50.182;8.734;2023-05-10T07:56:42;5.07;;;2.20;;
78013;SDS011;67222;50.182;8.734;2023-05-10T07:59:14;4.68;;;1.98;;
78013;SDS011;67222;50.182;8.734;2023-05-10T08:01:41;4.53;;;2.10;;
78013;SDS011;67222;50.182;8.734;2023-05-10T08:04:06;5.47;;;2.42;;
78013;SDS011;67222;50.182;8.734;2023-05-10T08:06:32;5.43;;;2.20;;
78013;SDS011;67222;50.182;8.734;2023-05-10T08:08:57;5.82;;;2.20;;
78013;SDS011;67222;50.182;8.734;2023-05-10T08:11:22;4.00;;;1.97;;
78013;SDS011;67222;50.182;8.734;2023-05-10T08:13:48;3.33;;;1.73;;
78013;SDS011;67222;50.182;8.734;2023-05-10T08:16:14;3.50;;;2.03;;
78013;SDS011;67222;50.182;8.734;2023-05-10T08:18:40;4.10;;;2.10;;
78013;SDS011;67222;50.182;8.734;2023-05-10T08:21:05;3.10;;;1.92;;
78013;SDS011;67222;50.182;8.734;2023-05-10T08:23:31;4.68;;;1.85;;
78013;SDS011;67222;50.182;8.734;2023-05-10T08:25:56;3.88;;;1.73;;
78013;SDS011;67222;50.182;8.734;2023-05-10T08:28:22;4.43;;;1.80;;
78013;SDS011;67222;50.182;8.734;2023-05-10T08:30:49;6.80;;;2.40;;
78013;SDS011;67222;50.182;8.734;2023-05-10T08:33:15;4.38;;;2.10;;
78013;SDS011;67222;50.182;8.734;2023-05-10T08:35:40;8.33;;;2.60;;
78013;SDS011;67222;50.182;8.734;2023-05-10T08:38:06;4.43;;;1.92;;
78013;SDS011;67222;50.182;8.734;2023-05-10T08:40:31;4.80;;;1.90;;
78013;SDS011;67222;50.182;8.734;2023-05-10T08:43:04;3.97;;;1.70;;
78013;SDS011;67222;50.182;8.734;2023-05-10T08:45:32;3.22;;;1.65;;
78013;SDS011;67222;50.182;8.734;2023-05-10T08:48:01;5.13;;;2.05;;
78013;SDS011;67222;50.182;8.734;2023-05-10T08:50:27;3.67;;;1.95;;
78013;SDS011;67222;50.182;8.734;2023-05-10T08:52:52;3.97;;;1.50;;
78013;SDS011;67222;50.182;8.734;2023-05-10T08:55:23;4.20;;;1.48;;
78013;SDS011;67222;50.182;8.734;2023-05-10T08:57:49;5.70;;;2.17;;
78013;SDS011;67222;50.182;8.734;2023-05-10T09:00:14;3.40;;;1.73;;
78013;SDS011;67222;50.182;8.734;2023-05-10T09:02:41;4.78;;;1.85;;
78013;SDS011;67222;50.182;8.734;2023-05-10T09:05:08;4.53;;;1.92;;
78013;SDS011;67222;50.182;8.734;2023-05-10T09:07:34;3.88;;;1.67;;
78013;SDS011;67222;50.182;8.734;2023-05-10T09:10:00;3.30;;;1.65;;
78013;SDS011;67222;50.182;8.734;2023-05-10T09:12:26;3.97;;;2.00;;
78013;SDS011;67222;50.182;8.734;2023-05-10T09:14:52;2.42;;;1.40;;
78013;SDS011;67222;50.182;8.734;2023-05-10T09:17:19;3.63;;;1.63;;
78013;SDS011;67222;50.182;8.734;2023-05-10T09:19:45;2.42;;;1.48;;
78013;SDS011;67222;50.182;8.734;2023-05-10T09:22:10;7.13;;;1.65;;
78013;SDS011;67222;50.182;8.734;2023-05-10T09:24:36;3.85;;;1.55;;
78013;SDS011;67222;50.182;8.734;2023-05-10T09:27:07;4.43;;;1.73;;
78013;SDS011;67222;50.182;8.734;2023-05-10T09:29:39;4.70;;;1.75;;
78013;SDS011;67222;50.182;8.734;2023-05-10T09:32:08;3.70;;;1.65;;
78013;SDS011;67222;50.182;8.734;2023-05-10T09:34:33;5.43;;;2.83;;
78013;SDS011;67222;50.182;8.734;2023-05-10T09:37:00;4.00;;;1.65;;
78013;SDS011;67222;50.182;8.734;2023-05-10T09:39:35;2.30;;;1.33;;
78013;SDS011;67222;50.182;8.734;2023-05-10T09:42:04;3.03;;;1.60;;
78013;SDS011;67222;50.182;8.734;2023-05-10T09:44:31;3.67;;;1.48;;
78013;SDS011;67222;50.182;8.734;2023-05-10T09:46:58;2.80;;;1.50;;
78013;SDS011;67222;50.182;8.734;2023-05-10T09:49:23;2.78;;;1.40;;
78013;SDS011;67222;50.182;8.734;2023-05-10T09:52:02;3.42;;;1.33;;
78013;SDS011;67222;50.182;8.734;2023-05-10T09:54:31;3.95;;;1.70;;
78013;SDS011;67222;50.182;8.734;2023-05-10T09:56:57;3.05;;;1.85;;
78013;SDS011;67222;50.182;8.734;2023-05-10T09:59:24;4.17;;;1.40;;
78013;SDS011;67222;50.182;8.734;2023-05-10T10:01:51;3.97;;;1.98;;
78013;SDS011;67222;50.182;8.734;2023-05-10T10:04:18;2.60;;;1.35;;
78013;SDS011;67222;50.182;8.734;2023-05-10T10:06:45;3.88;;;1.42;;
78013;SDS011;67222;50.182;8.734;2023-05-10T10:09:10;2.20;;;1.10;;
78013;SDS011;67222;50.182;8.734;2023-05-10T10:11:36;4.63;;;1.42;;
78013;SDS011;67222;50.182;8.734;2023-05-10T10:14:03;2.25;;;1.30;;
78013;SDS011;67222;50.182;8.734;2023-05-10T10:16:28;2.35;;;1.00;;
78013;SDS011;67222;50.182;8.734;2023-05-10T10:18:55;2.55;;;1.25;;
78013;SDS011;67222;50.182;8.734;2023-05-10T10:21:20;3.15;;;1.20;;
78013;SDS011;67222;50.182;8.734;2023-05-10T10:23:47;2.55;;;1.05;;
78013;SDS011;67222;50.182;8.734;2023-05-10T10:26:12;2.50;;;1.20;;
78013;SDS011;67222;50.182;8.734;2023-05-10T10:28:48;2.70;;;1.00;;
78013;SDS011;67222;50.182;8.734;2023-05-10T10:31:17;2.45;;;1.10;;
78013;SDS011;67222;50.182;8.734;2023-05-10T10:34:03;5.55;;;3.35;;
78013;SDS011;67222;50.182;8.734;2023-05-10T10:36:32;4.05;;;1.20;;
78013;SDS011;67222;50.182;8.734;2023-05-10T10:39:07;3.80;;;1.20;;
78013;SDS011;67222;50.182;8.734;2023-05-10T10:41:35;4.25;;;1.38;;
78013;SDS011;67222;50.182;8.734;2023-05-10T10:46:59;2.40;;;1.17;;
78013;SDS011;67222;50.182;8.734;2023-05-10T10:49:25;2.40;;;1.15;;
78013;SDS011;67222;50.182;8.734;2023-05-10T10:54:39;1.73;;;0.95;;
78013;SDS011;67222;50.182;8.734;2023-05-10T10:57:11;2.38;;;1.20;;
78013;SDS011;67222;50.182;8.734;2023-05-10T10:59:41;1.90;;;1.20;;
78013;SDS011;67222;50.182;8.734;2023-05-10T11:04:59;1.92;;;0.70;;
78013;SDS011;67222;50.182;8.734;2023-05-10T11:07:25;1.20;;;0.65;;
78013;SDS011;67222;50.182;8.734;2023-05-10T11:09:51;1.10;;;0.50;;
78013;SDS011;67222;50.182;8.734;2023-05-10T11:12:16;1.75;;;0.55;;
78013;SDS011;67222;50.182;8.734;2023-05-10T11:14:42;0.90;;;0.45;;
78013;SDS011;67222;50.182;8.734;2023-05-10T11:17:23;3.00;;;0.75;;
78013;SDS011;67222;50.182;8.734;2023-05-10T11:20:10;0.98;;;0.50;;
78013;SDS011;67222;50.182;8.734;2023-05-10T11:22:49;1.08;;;0.40;;
78013;SDS011;67222;50.182;8.734;2023-05-10T11:25:15;0.90;;;0.50;;
78013;SDS011;67222;50.182;8.734;2023-05-10T11:27:41;2.30;;;0.53;;
78013;SDS011;67222;50.182;8.734;2023-05-10T11:30:06;1.73;;;0.60;;
78013;SDS011;67222;50.182;8.734;2023-05-10T11:32:36;2.75;;;0.93;;
78013;SDS011;67222;50.182;8.734;2023-05-10T11:35:08;3.70;;;0.95;;
78013;SDS011;67222;50.182;8.734;2023-05-10T11:37:34;2.08;;;0.77;;
78013;SDS011;67222;50.182;8.734;2023-05-10T11:40:00;2.15;;;0.80;;
78013;SDS011;67222;50.182;8.734;2023-05-10T11:42:27;2.45;;;0.90;;
78013;SDS011;67222;50.182;8.734;2023-05-10T11:44:52;1.25;;;0.60;;
78013;SDS011;67222;50.182;8.734;2023-05-10T11:47:18;1.67;;;0.57;;
78013;SDS011;67222;50.182;8.734;2023-05-10T11:49:44;1.35;;;0.50;;
78013;SDS011;67222;50.182;8.734;2023-05-10T11:52:09;1.30;;;0.63;;
78013;SDS011;67222;50.182;8.734;2023-05-10T11:54:36;1.92;;;0.60;;
78013;SDS011;67222;50.182;8.734;2023-05-10T11:57:02;1.98;;;0.63;;
78013;SDS011;67222;50.182;8.734;2023-05-10T11:59:28;1.60;;;0.70;;
78013;SDS011;67222;50.182;8.734;2023-05-10T12:01:53;2.33;;;0.60;;
78013;SDS011;67222;50.182;8.734;2023-05-10T12:04:19;0.88;;;0.55;;
78013;SDS011;67222;50.182;8.734;2023-05-10T12:06:44;1.10;;;0.50;;
78013;SDS011;67222;50.182;8.734;2023-05-10T12:09:11;0.98;;;0.40;;
78013;SDS011;67222;50.182;8.734;2023-05-10T12:11:37;1.17;;;0.60;;
78013;SDS011;67222;50.182;8.734;2023-05-10T12:16:30;2.20;;;0.50;;
78013;SDS011;67222;50.182;8.734;2023-05-10T12:18:56;1.48;;;0.60;;
78013;SDS011;67222;50.182;8.734;2023-05-10T12:21:23;0.80;;;0.47;;
78013;SDS011;67222;50.182;8.734;2023-05-10T12:23:53;1.17;;;0.50;;
78013;SDS011;67222;50.182;8.734;2023-05-10T12:26:23;0.90;;;0.50;;
78013;SDS011;67222;50.182;8.734;2023-05-10T12:28:51;0.80;;;0.45;;
78013;SDS011;67222;50.182;8.734;2023-05-10T12:31:17;3.10;;;1.40;;
78013;SDS011;67222;50.182;8.734;2023-05-10T12:33:43;1.48;;;0.85;;
78013;SDS011;67222;50.182;8.734;2023-05-10T12:36:10;2.90;;;1.25;;
78013;SDS011;67222;50.182;8.734;2023-05-10T12:38:40;3.03;;;0.90;;
78013;SDS011;67222;50.182;8.734;2023-05-10T12:41:14;2.15;;;0.82;;
78013;SDS011;67222;50.182;8.734;2023-05-10T12:43:41;1.08;;;0.73;;
78013;SDS011;67222;50.182;8.734;2023-05-10T12:46:10;2.65;;;1.17;;
78013;SDS011;67222;50.182;8.734;2023-05-10T12:48:37;1.85;;;0.80;;
78013;SDS011;67222;50.182;8.734;2023-05-10T12:51:04;1.98;;;0.90;;
78013;SDS011;67222;50.182;8.734;2023-05-10T12:53:33;1.77;;;0.90;;
78013;SDS011;67222;50.182;8.734;2023-05-10T12:55:58;1.77;;;1.00;;
78013;SDS011;67222;50.182;8.734;2023-05-10T12:58:24;1.67;;;0.80;;
78013;SDS011;67222;50.182;8.734;2023-05-10T13:00:49;2.20;;;1.00;;
78013;SDS011;67222;50.182;8.734;2023-05-10T13:03:16;2.53;;;0.85;;
78013;SDS011;67222;50.182;8.734;2023-05-10T13:05:41;2.03;;;0.83;;
78013;SDS011;67222;50.182;8.734;2023-05-10T13:08:07;2.10;;;0.90;;
78013;SDS011;67222;50.182;8.734;2023-05-10T13:10:32;1.90;;;0.90;;
78013;SDS011;67222;50.182;8.734;2023-05-10T13:12:58;4.28;;;1.20;;
78013;SDS011;67222;50.182;8.734;2023-05-10T13:15:23;3.67;;;0.90;;
78013;SDS011;67222;50.182;8.734;2023-05-10T13:17:49;1.70;;;0.93;;
78013;SDS011;67222;50.182;8.734;2023-05-10T13:20:14;1.42;;;0.40;;
78013;SDS011;67222;50.182;8.734;2023-05-10T13:22:40;1.27;;;0.50;;
78013;SDS011;67222;50.182;8.734;2023-05-10T13:25:07;0.60;;;0.50;;
78013;SDS011;67222;50.182;8.734;2023-05-10T13:27:32;2.40;;;0.47;;
78013;SDS011;67222;50.182;8.734;2023-05-10T13:29:58;1.83;;;0.40;;
78013;SDS011;67222;50.182;8.734;2023-05-10T13:32:24;2.50;;;0.50;;
78013;SDS011;67222;50.182;8.734;2023-05-10T13:34:50;1.30;;;0.60;;
78013;SDS011;67222;50.182;8.734;2023-05-10T13:37:16;1.13;;;0.50;;
78013;SDS011;67222;50.182;8.734;2023-05-10T13:39:41;2.23;;;0.70;;
78013;SDS011;67222;50.182;8.734;2023-05-10T13:42:06;0.93;;;0.50;;
78013;SDS011;67222;50.182;8.734;2023-05-10T13:44:31;1.63;;;0.70;;
78013;SDS011;67222;50.182;8.734;2023-05-10T13:46:58;2.25;;;0.70;;
78013;SDS011;67222;50.182;8.734;2023-05-10T13:49:24;1.52;;;0.70;;
78013;SDS011;67222;50.182;8.734;2023-05-10T13:51:49;0.80;;;0.80;;
78013;SDS011;67222;50.182;8.734;2023-05-10T13:54:14;1.37;;;1.00;;
78013;SDS011;67222;50.182;8.734;2023-05-10T13:56:40;1.60;;;0.50;;
78013;SDS011;67222;50.182;8.734;2023-05-10T13:59:07;1.85;;;0.52;;
78013;SDS011;67222;50.182;8.734;2023-05-10T14:01:32;2.50;;;0.70;;
78013;SDS011;67222;50.182;8.734;2023-05-10T14:03:58;1.90;;;0.70;;
78013;SDS011;67222;50.182;8.734;2023-05-10T14:06:23;1.63;;;0.50;;
78013;SDS011;67222;50.182;8.734;2023-05-10T14:08:48;0.82;;;0.40;;
78013;SDS011;67222;50.182;8.734;2023-05-10T14:11:14;1.50;;;0.40;;
78013;SDS011;67222;50.182;8.734;2023-05-10T14:13:39;1.23;;;0.50;;
78013;SDS011;67222;50.182;8.734;2023-05-10T14:16:05;1.17;;;0.50;;
78013;SDS011;67222;50.182;8.734;2023-05-10T14:18:30;1.13;;;0.50;;
78013;SDS011;67222;50.182;8.734;2023-05-10T14:20:56;1.40;;;0.50;;
78013;SDS011;67222;50.182;8.734;2023-05-10T14:23:21;1.27;;;0.40;;
78013;SDS011;67222;50.182;8.734;2023-05-10T14:25:51;0.75;;;0.40;;
78013;SDS011;67222;50.182;8.734;2023-05-10T14:28:17;1.75;;;0.50;;
78013;SDS011;67222;50.182;8.734;2023-05-10T14:30:43;1.23;;;0.40;;
78013;SDS011;67222;50.182;8.734;2023-05-10T14:33:09;1.67;;;0.50;;
78013;SDS011;67222;50.182;8.734;2023-05-10T14:35:35;0.52;;;0.30;;
78013;SDS011;67222;50.182;8.734;2023-05-10T14:38:01;1.45;;;0.32;;
78013;SDS011;67222;50.182;8.734;2023-05-10T14:40:28;1.70;;;0.60;;
78013;SDS011;67222;50.182;8.734;2023-05-10T14:42:53;0.50;;;0.35;;
78013;SDS011;67222;50.182;8.734;2023-05-10T14:45:19;0.82;;;0.30;;
78013;SDS011;67222;50.182;8.734;2023-05-10T14:47:45;2.40;;;0.55;;
78013;SDS011;67222;50.182;8.734;2023-05-10T14:50:10;1.50;;;0.60;;
78013;SDS011;67222;50.182;8.734;2023-05-10T14:52:35;2.23;;;1.17;;
78013;SDS011;67222;50.182;8.734;2023-05-10T14:55:01;5.60;;;0.88;;
78013;SDS011;67222;50.182;8.734;2023-05-10T14:57:27;1.13;;;0.50;;
78013;SDS011;67222;50.182;8.734;2023-05-10T14:59:54;0.70;;;0.40;;
78013;SDS011;67222;50.182;8.734;2023-05-10T15:02:20;1.45;;;0.40;;
78013;SDS011;67222;50.182;8.734;2023-05-10T15:05:02;2.72;;;0.50;;
78013;SDS011;67222;50.182;8.734;2023-05-10T15:07:27;0.82;;;0.30;;
78013;SDS011;67222;50.182;8.734;2023-05-10T15:09:52;1.10;;;0.40;;
78013;SDS011;67222;50.182;8.734;2023-05-10T15:12:19;1.42;;;0.40;;
78013;SDS011;67222;50.182;8.734;2023-05-10T15:14:44;1.93;;;0.60;;
78013;SDS011;67222;50.182;8.734;2023-05-10T15:17:09;1.33;;;0.47;;
78013;SDS011;67222;50.182;8.734;2023-05-10T15:19:35;1.35;;;0.50;;
78013;SDS011;67222;50.182;8.734;2023-05-10T15:22:01;1.52;;;0.80;;
78013;SDS011;67222;50.182;8.734;2023-05-10T15:24:27;2.25;;;0.60;;
78013;SDS011;67222;50.182;8.734;2023-05-10T15:26:52;1.75;;;0.47;;
78013;SDS011;67222;50.182;8.734;2023-05-10T15:29:17;0.80;;;0.30;;
78013;SDS011;67222;50.182;8.734;2023-05-10T15:31:48;1.05;;;0.50;;
78013;SDS011;67222;50.182;8.734;2023-05-10T15:34:15;1.50;;;0.40;;
78013;SDS011;67222;50.182;8.734;2023-05-10T15:36:40;1.60;;;0.50;;
78013;SDS011;67222;50.182;8.734;2023-05-10T15:39:06;1.42;;;0.40;;
78013;SDS011;67222;50.182;8.734;2023-05-10T15:41:31;1.00;;;0.40;;
78013;SDS011;67222;50.182;8.734;2023-05-10T15:43:57;0.80;;;0.32;;
78013;SDS011;67222;50.182;8.734;2023-05-10T15:46:24;0.60;;;0.30;;
78013;SDS011;67222;50.182;8.734;2023-05-10T15:48:50;2.42;;;0.57;;
78013;SDS011;67222;50.182;8.734;2023-05-10T15:51:15;1.77;;;0.40;;
78013;SDS011;67222;50.182;8.734;2023-05-10T15:53:41;1.40;;;0.40;;
78013;SDS011;67222;50.182;8.734;2023-05-10T15:56:06;1.95;;;0.50;;
78013;SDS011;67222;50.182;8.734;2023-05-10T15:58:32;1.25;;;0.40;;
78013;SDS011;67222;50.182;8.734;2023-05-10T16:00:57;2.83;;;0.35;;
78013;SDS011;67222;50.182;8.734;2023-05-10T16:03:22;2.97;;;0.90;;
78013;SDS011;67222;50.182;8.734;2023-05-10T16:05:48;0.88;;;0.50;;
78013;SDS011;67222;50.182;8.734;2023-05-10T16:08:13;1.00;;;0.40;;
78013;SDS011;67222;50.182;8.734;2023-05-10T16:10:38;1.57;;;0.60;;
78013;SDS011;67222;50.182;8.734;2023-05-10T16:13:04;1.20;;;0.50;;
78013;SDS011;67222;50.182;8.734;2023-05-10T16:15:29;0.50;;;0.32;;
78013;SDS011;67222;50.182;8.734;2023-05-10T16:17:55;0.65;;;0.40;;
78013;SDS011;67222;50.182;8.734;2023-05-10T16:20:20;1.13;;;0.50;;
78013;SDS011;67222;50.182;8.734;2023-05-10T16:22:45;1.73;;;0.40;;
78013;SDS011;67222;50.182;8.734;2023-05-10T16:25:11;1.58;;;0.50;;
78013;SDS011;67222;50.182;8.734;2023-05-10T16:27:36;1.75;;;0.50;;
78013;SDS011;67222;50.182;8.734;2023-05-10T16:30:02;1.27;;;0.32;;
78013;SDS011;67222;50.182;8.734;2023-05-10T16:32:27;1.10;;;0.45;;
78013;SDS011;67222;50.182;8.734;2023-05-10T16:34:53;1.27;;;0.50;;
78013;SDS011;67222;50.182;8.734;2023-05-10T16:37:18;0.75;;;0.38;;
78013;SDS011;67222;50.182;8.734;2023-05-10T16:39:43;1.58;;;0.47;;
78013;SDS011;67222;50.182;8.734;2023-05-10T16:42:09;1.77;;;0.50;;
78013;SDS011;67222;50.182;8.734;2023-05-10T16:44:34;1.13;;;0.57;;
78013;SDS011;67222;50.182;8.734;2023-05-10T16:47:00;1.45;;;0.50;;
78013;SDS011;67222;50.182;8.734;2023-05-10T16:49:27;0.93;;;0.47;;
78013;SDS011;67222;50.182;8.734;2023-05-10T16:51:52;2.08;;;0.50;;
78013;SDS011;67222;50.182;8.734;2023-05-10T16:54:17;3.00;;;0.60;;
78013;SDS011;67222;50.182;8.734;2023-05-10T16:56:44;2.08;;;0.60;;
78013;SDS011;67222;50.182;8.734;2023-05-10T16:59:09;1.63;;;0.73;;
78013;SDS011;67222;50.182;8.734;2023-05-10T17:01:34;2.03;;;0.60;;
78013;SDS011;67222;50.182;8.734;2023-05-10T17:03:59;2.17;;;0.57;;
78013;SDS011;67222;50.182;8.734;2023-05-10T17:06:25;2.17;;;0.70;;
78013;SDS011;67222;50.182;8.734;2023-05-10T17:08:50;1.73;;;0.60;;
78013;SDS011;67222;50.182;8.734;2023-05-10T17:11:16;2.78;;;0.60;;
78013;SDS011;67222;50.182;8.734;2023-05-10T17:13:43;3.03;;;0.60;;
78013;SDS011;67222;50.182;8.734;2023-05-10T17:16:09;1.73;;;0.60;;
78013;SDS011;67222;50.182;8.734;2023-05-10T17:18:34;2.55;;;0.68;;
78013;SDS011;67222;50.182;8.734;2023-05-10T17:21:00;1.10;;;0.60;;
78013;SDS011;67222;50.182;8.734;2023-05-10T17:23:25;6.15;;;1.15;;
78013;SDS011;67222;50.182;8.734;2023-05-10T17:25:51;1.42;;;0.50;;
78013;SDS011;67222;50.182;8.734;2023-05-10T17:28:16;1.33;;;0.50;;
78013;SDS011;67222;50.182;8.734;2023-05-10T17:30:41;2.63;;;0.80;;
78013;SDS011;67222;50.182;8.734;2023-05-10T17:33:07;3.07;;;0.70;;
78013;SDS011;67222;50.182;8.734;2023-05-10T17:35:32;1.13;;;0.40;;
78013;SDS011;67222;50.182;8.734;2023-05-10T17:37:58;1.58;;;0.63;;
78013;SDS011;67222;50.182;8.734;2023-05-10T17:40:23;2.07;;;0.60;;
78013;SDS011;67222;50.182;8.734;2023-05-10T17:42:48;1.67;;;0.80;;
78013;SDS011;67222;50.182;8.734;2023-05-10T17:45:14;2.13;;;0.80;;
78013;SDS011;67222;50.182;8.734;2023-05-10T17:47:39;3.33;;;0.70;;
78013;SDS011;67222;50.182;8.734;2023-05-10T17:50:05;1.70;;;0.73;;
78013;SDS011;67222;50.182;8.734;2023-05-10T17:52:30;2.22;;;0.80;;
78013;SDS011;67222;50.182;8.734;2023-05-10T17:54:56;1.67;;;0.60;;
78013;SDS011;67222;50.182;8.734;2023-05-10T17:57:21;2.10;;;0.77;;
78013;SDS011;67222;50.182;8.734;2023-05-10T17:59:47;2.53;;;0.70;;
78013;SDS011;67222;50.182;8.734;2023-05-10T18:02:12;2.87;;;0.77;;
78013;SDS011;67222;50.182;8.734;2023-05-10T18:04:38;2.53;;;0.70;;
78013;SDS011;67222;50.182;8.734;2023-05-10T18:07:04;1.40;;;0.60;;
78013;SDS011;67222;50.182;8.734;2023-05-10T18:09:29;2.70;;;1.00;;
78013;SDS011;67222;50.182;8.734;2023-05-10T18:11:55;2.50;;;0.75;;
78013;SDS011;67222;50.182;8.734;2023-05-10T18:14:21;2.40;;;0.90;;
78013;SDS011;67222;50.182;8.734;2023-05-10T18:16:52;2.15;;;0.80;;
78013;SDS011;67222;50.182;8.734;2023-05-10T18:19:17;2.30;;;0.90;;
78013;SDS011;67222;50.182;8.734;2023-05-10T18:21:43;3.50;;;0.77;;
78013;SDS011;67222;50.182;8.734;2023-05-10T18:24:08;2.53;;;0.87;;
78013;SDS011;67222;50.182;8.734;2023-05-10T18:26:33;1.70;;;0.80;;
78013;SDS011;67222;50.182;8.734;2023-05-10T18:28:58;1.73;;;0.90;;
78013;SDS011;67222;50.182;8.734;2023-05-10T18:31:24;2.92;;;0.85;;
78013;SDS011;67222;50.182;8.734;2023-05-10T18:33:49;3.20;;;0.70;;
78013;SDS011;67222;50.182;8.734;2023-05-10T18:36:15;2.17;;;0.70;;
78013;SDS011;67222;50.182;8.734;2023-05-10T18:38:40;3.20;;;0.65;;
78013;SDS011;67222;50.182;8.734;2023-05-10T18:41:06;2.85;;;0.80;;
78013;SDS011;67222;50.182;8.734;2023-05-10T18:43:31;3.45;;;1.10;;
78013;SDS011;67222;50.182;8.734;2023-05-10T18:46:00;1.90;;;0.70;;
78013;SDS011;67222;50.182;8.734;2023-05-10T18:48:25;2.13;;;0.80;;
78013;SDS011;67222;50.182;8.734;2023-05-10T18:50:50;2.37;;;0.97;;
78013;SDS011;67222;50.182;8.734;2023-05-10T18:53:16;3.35;;;1.00;;
78013;SDS011;67222;50.182;8.734;2023-05-10T18:55:41;2.07;;;0.77;;
78013;SDS011;67222;50.182;8.734;2023-05-10T18:58:06;2.65;;;0.90;;
78013;SDS011;67222;50.182;8.734;2023-05-10T19:00:32;2.07;;;0.90;;
78013;SDS011;67222;50.182;8.734;2023-05-10T19:02:57;2.30;;;0.90;;
78013;SDS011;67222;50.182;8.734;2023-05-10T19:05:22;2.17;;;1.00;;
78013;SDS011;67222;50.182;8.734;2023-05-10T19:07:53;2.35;;;0.85;;
78013;SDS011;67222;50.182;8.734;2023-05-10T19:10:19;2.35;;;0.88;;
78013;SDS011;67222;50.182;8.734;2023-05-10T19:12:44;2.13;;;0.82;;
78013;SDS011;67222;50.182;8.734;2023-05-10T19:15:10;4.63;;;1.00;;
78013;SDS011;67222;50.182;8.734;2023-05-10T19:17:35;2.78;;;1.20;;
78013;SDS011;67222;50.182;8.734;2023-05-10T19:20:01;2.40;;;1.17;;
78013;SDS011;67222;50.182;8.734;2023-05-10T19:22:28;2.50;;;1.00;;
78013;SDS011;67222;50.182;8.734;2023-05-10T19:24:53;1.98;;;1.35;;
78013;SDS011;67222;50.182;8.734;2023-05-10T19:27:19;2.85;;;1.00;;